Time;durP1;ratioP1;P1;durP2;ratioP2;P2;SDS_P1;SDS_P2;PMS_P1;PMS_P2;Temp;Humidity;BMP_temperature;BMP_pressure;BME280_temperature;BME280_humidity;BME280_pressure;Samples;Min_cycle;Max_cycle;Signal;HPM_P1;HPM_P2
2022/11/08 00:02:33;;;;;;;12.18;6.65;;;;;;;8.33;83.75;101369.88;4986173;28;20414;-78
2022/11/08 00:16:10;;;;;;;13.55;5.78;;;;;;;8.37;83.68;101389.31;4990389;28;20054;-78
2022/11/08 00:18:38;;;;;;;12.85;6.75;;;;;;;8.28;82.80;101381.53;4992234;28;20122;-78
2022/11/08 00:21:06;;;;;;;14.10;6.70;;;;;;;8.27;82.50;101388.03;4986545;28;20042;-78
2022/11/08 00:23:34;;;;;;;8.60;5.57;;;;;;;8.29;82.51;101393.25;4973963;28;20591;-78
2022/11/08 00:26:02;;;;;;;11.98;5.53;;;;;;;8.33;81.98;101397.16;4991352;28;20042;-78
2022/11/08 00:28:29;;;;;;;10.90;5.68;;;;;;;8.36;83.28;101393.09;4992302;28;20050;-78
2022/11/08 00:30:57;;;;;;;11.68;5.57;;;;;;;8.38;82.53;101388.22;4981589;28;20046;-78
2022/11/08 00:33:25;;;;;;;10.57;5.30;;;;;;;8.29;81.99;101377.72;4991756;28;20050;-78
2022/11/08 00:35:57;;;;;;;10.88;5.68;;;;;;;8.29;84.04;101377.72;4981935;28;20046;-78
2022/11/08 00:38:26;;;;;;;9.02;5.78;;;;;;;8.33;83.20;101378.88;4987737;28;20131;-78
2022/11/08 00:40:53;;;;;;;8.23;5.35;;;;;;;8.30;83.58;101382.09;4987374;28;20405;-78
2022/11/08 00:43:21;;;;;;;7.95;5.35;;;;;;;8.32;83.15;101404.50;4988656;28;20061;-78
2022/11/08 00:45:52;;;;;;;10.82;5.80;;;;;;;8.06;82.58;101384.09;4979420;28;20050;-78
2022/11/08 00:48:20;;;;;;;8.57;5.22;;;;;;;8.12;83.05;101382.31;4989278;28;20061;-78
2022/11/08 00:50:48;;;;;;;11.15;5.00;;;;;;;8.17;83.20;101402.31;4991885;28;20489;-78
2022/11/08 00:53:16;;;;;;;6.25;4.38;;;;;;;8.09;83.09;101388.22;4990735;28;20042;-78
2022/11/08 00:55:44;;;;;;;10.88;5.13;;;;;;;8.15;84.13;101403.63;4989912;28;20041;-78
2022/11/08 00:58:12;;;;;;;8.98;4.90;;;;;;;8.20;84.23;101395.53;5010089;28;20055;-78
2022/11/08 01:00:40;;;;;;;9.73;4.93;;;;;;;8.15;84.01;101392.72;4994728;28;20077;-78
2022/11/08 01:03:20;;;;;;;8.32;4.75;;;;;;;8.20;82.96;101390.94;4986751;28;20054;-78
2022/11/08 01:05:49;;;;;;;7.47;4.53;;;;;;;8.22;84.13;101396.16;4990535;28;20054;-78
2022/11/08 01:08:19;;;;;;;7.25;4.45;;;;;;;8.30;83.10;101400.34;4985671;28;20046;-78
2022/11/08 01:10:51;;;;;;;8.45;4.70;;;;;;;8.33;83.17;101397.16;4993358;28;20050;-78
2022/11/08 01:13:19;;;;;;;8.52;4.30;;;;;;;8.26;83.21;101383.66;4992229;28;20038;-78
2022/11/08 01:15:48;;;;;;;9.10;4.90;;;;;;;8.26;83.24;101380.94;4995062;28;20046;-78
2022/11/08 01:18:16;;;;;;;9.05;5.47;;;;;;;8.25;83.43;101373.81;4995649;28;20393;-78
2022/11/08 01:20:47;;;;;;;9.00;5.13;;;;;;;8.24;83.61;101374.91;4995339;28;20046;-78
2022/11/08 01:23:17;;;;;;;7.93;5.00;;;;;;;8.30;83.32;101375.81;4994709;28;20069;-78
2022/11/08 01:25:47;;;;;;;10.23;5.43;;;;;;;8.29;82.54;101375.00;4995507;28;20050;-78
2022/11/08 01:28:16;;;;;;;8.23;5.13;;;;;;;8.32;83.30;101373.69;4995517;28;20061;-78
2022/11/08 01:30:45;;;;;;;10.27;5.28;;;;;;;8.27;82.19;101351.78;4993543;28;20058;-78
2022/11/08 01:33:14;;;;;;;8.90;5.25;;;;;;;8.34;83.36;101366.91;4986686;28;20058;-78
2022/11/08 01:35:43;;;;;;;10.45;5.28;;;;;;;8.33;81.66;101364.44;4992139;28;20050;-77
2022/11/08 01:38:12;;;;;;;9.20;5.75;;;;;;;8.36;82.64;101361.19;4995067;28;20046;-78
2022/11/08 01:40:45;;;;;;;7.50;5.38;;;;;;;8.32;82.16;101374.50;5008024;28;20045;-77
2022/11/08 01:43:29;;;;;;;10.27;5.80;;;;;;;8.30;82.67;101363.00;4994807;28;20042;-77
2022/11/08 01:46:28;;;;;;;9.00;5.72;;;;;;;8.27;82.29;101358.03;4995671;28;20050;-77
2022/11/08 01:49:28;;;;;;;13.23;6.25;;;;;;;8.11;83.11;101351.47;4995241;28;20058;-78
2022/11/08 01:52:01;;;;;;;9.23;5.80;;;;;;;8.20;83.11;101354.63;4986230;28;20054;-78
2022/11/08 01:54:47;;;;;;;11.20;5.97;;;;;;;8.22;83.39;101354.41;4982999;28;20406;-78
2022/11/08 01:57:23;;;;;;;14.90;7.03;;;;;;;8.15;82.52;101354.53;4990637;28;20080;-77
2022/11/08 01:59:56;;;;;;;11.60;6.63;;;;;;;8.09;83.89;101345.44;4990967;28;20054;-77
2022/11/08 02:02:26;;;;;;;14.43;6.07;;;;;;;8.10;82.67;101338.09;4994443;28;20057;-77
2022/11/08 02:04:54;;;;;;;13.50;6.38;;;;;;;8.12;83.33;101338.69;4989166;28;20406;-77
2022/11/08 02:07:23;;;;;;;13.70;6.72;;;;;;;8.13;83.41;101343.91;4988267;28;20050;-77
2022/11/08 02:09:52;;;;;;;14.85;6.18;;;;;;;8.10;83.71;101346.25;4989446;28;20046;-77
2022/11/08 02:12:21;;;;;;;10.25;5.57;;;;;;;8.08;83.28;101338.34;4992489;28;20039;-78
2022/11/08 02:14:49;;;;;;;7.47;5.30;;;;;;;7.99;83.39;101335.19;4987123;28;20054;-78
2022/11/08 02:17:18;;;;;;;7.72;4.68;;;;;;;7.99;83.80;101337.91;4988833;28;20053;-77
2022/11/08 02:19:49;;;;;;;9.20;4.90;;;;;;;8.02;84.13;101342.06;4994403;28;20046;-77
2022/11/08 02:22:38;;;;;;;7.18;4.30;;;;;;;7.90;83.54;101333.91;4991029;28;20046;-78
2022/11/08 02:25:08;;;;;;;8.05;4.75;;;;;;;7.87;84.53;101328.97;4988524;28;20050;-77
2022/11/08 02:27:36;;;;;;;7.20;4.40;;;;;;;7.91;84.92;101333.69;4982656;28;20046;-78
2022/11/08 02:30:04;;;;;;;5.72;3.53;;;;;;;7.92;82.98;101337.25;4994534;28;20408;-78
2022/11/08 02:32:39;;;;;;;10.68;3.88;;;;;;;7.88;83.50;101344.25;4992207;28;20050;-78
2022/11/08 02:35:16;;;;;;;9.00;5.05;;;;;;;7.91;83.72;101341.00;4994064;28;20505;-78
2022/11/08 02:37:45;;;;;;;9.00;4.88;;;;;;;7.87;84.83;101337.13;4990027;28;20054;-77
2022/11/08 02:40:13;;;;;;;10.95;4.50;;;;;;;7.88;84.01;101341.50;4994386;28;20050;-77
2022/11/08 02:42:41;;;;;;;10.30;4.50;;;;;;;7.91;84.35;101344.56;4993267;28;20050;-78
2022/11/08 02:45:09;;;;;;;9.18;4.90;;;;;;;7.85;83.04;101340.09;4992933;28;20409;-78
2022/11/08 02:47:37;;;;;;;9.35;5.15;;;;;;;7.93;85.47;101345.16;4986856;28;20051;-78
2022/11/08 02:50:05;;;;;;;11.40;5.60;;;;;;;7.85;84.47;101328.34;4993860;28;20046;-78
2022/11/08 02:52:33;;;;;;;9.38;4.97;;;;;;;7.90;84.49;101332.03;4986612;28;20394;-77
2022/11/08 02:55:01;;;;;;;6.38;4.20;;;;;;;7.93;85.20;101331.53;4994242;28;20050;-78
2022/11/08 02:57:31;;;;;;;10.27;4.85;;;;;;;7.98;84.78;101327.25;4982732;28;20047;-77
2022/11/08 02:59:59;;;;;;;9.43;4.82;;;;;;;7.94;84.64;101316.00;4990049;28;20038;-78
2022/11/08 03:02:27;;;;;;;7.82;4.97;;;;;;;8.04;83.51;101305.31;4992779;28;20034;-78
2022/11/08 03:04:55;;;;;;;6.68;4.68;;;;;;;8.03;82.92;101309.06;4988871;28;20122;-78
2022/11/08 03:07:26;;;;;;;11.20;4.50;;;;;;;8.19;82.63;101317.53;4983411;28;20046;-77
2022/11/08 03:09:54;;;;;;;9.73;4.88;;;;;;;8.16;81.85;101312.59;4986552;28;20045;-78
2022/11/08 03:12:21;;;;;;;9.52;4.93;;;;;;;8.13;81.93;101313.06;4985880;28;20397;-77
2022/11/08 03:14:50;;;;;;;7.05;4.90;;;;;;;7.98;83.37;101302.72;4986810;28;20409;-78
2022/11/08 03:17:18;;;;;;;8.93;4.95;;;;;;;7.98;84.28;101308.16;4990795;28;20046;-77
2022/11/08 03:19:46;;;;;;;9.15;5.25;;;;;;;7.85;85.74;101290.22;4985103;28;20057;-78
2022/11/08 03:22:14;;;;;;;12.25;5.78;;;;;;;7.76;84.39;101314.28;4992552;28;20050;-77
2022/11/08 03:24:42;;;;;;;6.53;4.53;;;;;;;7.68;84.39;101301.91;4992197;28;20058;-77
2022/11/08 03:27:10;;;;;;;9.75;4.65;;;;;;;7.68;86.13;101306.53;4988073;28;20478;-77
2022/11/08 03:29:37;;;;;;;8.70;4.65;;;;;;;7.66;85.04;101293.13;4991561;28;20501;-77
2022/11/08 03:32:05;;;;;;;7.88;4.70;;;;;;;7.64;85.19;101284.38;4992411;28;20054;-78
2022/11/08 03:34:33;;;;;;;8.38;4.63;;;;;;;7.58;84.95;101296.25;4988176;28;20054;-77
2022/11/08 03:37:03;;;;;;;9.35;4.63;;;;;;;7.68;85.09;101301.06;4984629;28;20061;-78
2022/11/08 03:39:31;;;;;;;11.18;5.28;;;;;;;7.87;85.25;101301.72;4990081;28;20038;-78
2022/11/08 03:42:01;;;;;;;9.18;4.53;;;;;;;7.91;85.53;101300.13;4993224;28;20061;-78
2022/11/08 03:44:30;;;;;;;10.38;4.68;;;;;;;7.88;84.18;101297.91;4978895;28;20477;-78
2022/11/08 03:46:59;;;;;;;12.88;5.25;;;;;;;7.95;83.73;101317.66;4983638;28;20047;-78
2022/11/08 03:49:27;;;;;;;9.57;4.28;;;;;;;8.10;83.54;101311.66;4981834;28;20042;-78
2022/11/08 03:51:57;;;;;;;9.13;4.90;;;;;;;8.16;83.24;101318.06;4983898;28;20046;-78
2022/11/08 03:54:27;;;;;;;6.60;4.20;;;;;;;8.14;82.83;101306.53;4992936;28;20062;-78
2022/11/08 03:56:55;;;;;;;6.63;3.78;;;;;;;8.04;81.66;101310.75;4987263;28;20069;-78
2022/11/08 03:59:23;;;;;;;5.40;3.90;;;;;;;8.11;82.64;101317.97;4987173;28;20061;-78
2022/11/08 04:01:51;;;;;;;5.60;3.65;;;;;;;8.13;84.12;101313.91;4992797;28;20486;-77
2022/11/08 04:04:19;;;;;;;7.63;4.00;;;;;;;7.98;83.30;101305.44;4989634;28;20054;-77
2022/11/08 04:06:47;;;;;;;5.15;3.83;;;;;;;7.95;83.60;101323.13;4989081;28;20173;-78
2022/11/08 04:09:15;;;;;;;7.03;3.85;;;;;;;7.95;83.64;101320.38;4988846;28;20050;-78
2022/11/08 04:21:17;;;;;;;8.27;4.63;;;;;;;7.92;84.76;101318.97;4984732;28;20046;-78
2022/11/08 04:22:58;;;;;;;6.90;5.50;;;;;;;7.84;85.47;101316.66;4990109;28;20516;-78
2022/11/08 04:25:26;;;;;;;6.70;5.32;;;;;;;7.75;86.84;101308.03;4988643;28;20050;-78
2022/11/08 04:28:01;;;;;;;10.25;5.53;;;;;;;7.74;87.30;101308.28;4987168;28;20374;-78
2022/11/08 04:30:29;;;;;;;7.78;5.63;;;;;;;7.76;86.77;101317.03;4991309;28;20513;-77
2022/11/08 04:33:01;;;;;;;11.25;5.47;;;;;;;7.74;86.90;101314.56;4989910;28;20046;-78
2022/11/08 04:35:30;;;;;;;7.43;5.15;;;;;;;7.65;87.18;101313.28;4990689;28;20054;-77
2022/11/08 04:38:02;;;;;;;8.82;4.68;;;;;;;7.67;86.96;101322.03;4984442;28;20054;-78
2022/11/08 04:40:30;;;;;;;8.02;5.30;;;;;;;7.61;86.31;101317.53;4988066;28;20038;-77
2022/11/08 04:42:58;;;;;;;7.53;4.95;;;;;;;7.65;85.30;101302.38;4992418;28;20059;-77
2022/11/08 04:45:26;;;;;;;6.82;4.82;;;;;;;7.43;86.67;101311.19;4992365;28;20054;-77
2022/11/08 04:47:54;;;;;;;7.03;4.78;;;;;;;7.46;87.30;101305.28;4986877;28;20067;-77
2022/11/08 04:50:22;;;;;;;7.15;4.25;;;;;;;7.44;87.29;101307.44;4977987;28;20054;-77
2022/11/08 04:52:54;;;;;;;6.57;4.18;;;;;;;7.37;86.82;101307.56;4979486;28;20401;-78
2022/11/08 04:55:22;;;;;;;8.70;4.65;;;;;;;7.19;87.42;101310.44;4981703;28;20062;-77
2022/11/08 04:57:50;;;;;;;6.85;4.97;;;;;;;7.31;87.26;101324.00;4982790;28;20072;-78
2022/11/08 05:00:18;;;;;;;8.02;4.65;;;;;;;7.36;87.05;101310.50;4991286;28;20038;-77
2022/11/08 05:02:46;;;;;;;8.23;4.78;;;;;;;7.47;86.66;101312.38;4990016;28;20792;-77
2022/11/08 05:05:14;;;;;;;7.65;4.38;;;;;;;7.58;85.90;101318.03;4980235;28;20054;-78
2022/11/08 05:07:43;;;;;;;9.63;4.82;;;;;;;7.61;85.91;101312.09;4979256;28;20043;-78
2022/11/08 05:10:11;;;;;;;7.55;4.60;;;;;;;7.59;86.26;101308.81;4982650;28;20378;-78
2022/11/08 05:12:39;;;;;;;9.88;4.88;;;;;;;7.61;86.06;101317.53;4983600;28;20055;-78
2022/11/08 05:15:07;;;;;;;8.13;5.10;;;;;;;7.45;87.44;101305.53;4987046;28;20050;-77
2022/11/08 05:17:36;;;;;;;9.70;4.80;;;;;;;7.45;87.25;101325.41;4988462;28;20050;-77
2022/11/08 05:25:39;;;;;;;9.13;4.45;;;;;;;7.40;87.83;101314.41;4982199;28;20049;-77
2022/11/08 05:28:07;;;;;;;9.10;4.60;;;;;;;7.45;88.82;101314.53;4984120;28;20058;-77
2022/11/08 05:30:35;;;;;;;6.32;4.47;;;;;;;7.43;88.53;101316.66;4987324;28;20398;-77
2022/11/08 05:33:03;;;;;;;9.40;4.97;;;;;;;7.45;88.32;101300.91;4985719;28;20057;-77
2022/11/08 05:35:34;;;;;;;7.05;4.30;;;;;;;7.47;87.56;101315.09;4990358;28;20053;-77
2022/11/08 05:38:02;;;;;;;9.05;4.85;;;;;;;7.57;87.03;101311.75;4988336;28;20046;-78
2022/11/08 05:40:31;;;;;;;8.77;4.78;;;;;;;7.56;87.45;101304.66;4996417;28;20057;-78
2022/11/08 05:43:00;;;;;;;5.78;4.53;;;;;;;7.55;86.89;101297.56;4980965;28;20501;-78
2022/11/08 05:45:28;;;;;;;7.60;4.50;;;;;;;7.65;86.85;101310.56;4997575;28;20069;-78
2022/11/08 05:47:56;;;;;;;8.75;4.20;;;;;;;7.67;86.60;101313.84;4993679;28;20050;-78
2022/11/08 05:50:24;;;;;;;8.73;4.85;;;;;;;7.62;86.63;101309.13;4995444;28;20065;-78
2022/11/08 05:52:53;;;;;;;8.52;4.28;;;;;;;7.78;86.24;101323.88;4994467;28;20398;-78
2022/11/08 05:55:21;;;;;;;6.63;4.20;;;;;;;7.70;86.25;101313.38;4982231;28;20509;-78
2022/11/08 05:57:50;;;;;;;10.20;4.93;;;;;;;7.68;86.45;101307.34;4989604;28;20506;-78
2022/11/08 06:00:18;;;;;;;10.48;4.78;;;;;;;7.57;86.94;101310.94;4994281;28;20429;-78
2022/11/08 06:02:46;;;;;;;8.90;4.43;;;;;;;7.58;87.09;101327.03;4993738;28;20050;-78
2022/11/08 06:05:14;;;;;;;9.30;4.63;;;;;;;7.62;87.21;101335.56;4994587;28;20065;-79
2022/11/08 06:07:42;;;;;;;10.63;4.47;;;;;;;7.49;87.58;101320.31;4993015;28;20526;-78
2022/11/08 06:10:10;;;;;;;13.98;7.10;;;;;;;7.65;86.93;101329.63;4993159;28;20375;-78
2022/11/08 06:12:38;;;;;;;11.93;6.32;;;;;;;7.68;86.64;101340.06;4993681;28;20042;-78
2022/11/08 06:15:07;;;;;;;9.32;5.35;;;;;;;7.67;86.96;101335.66;4982798;28;20054;-78
2022/11/08 06:17:35;;;;;;;9.75;5.05;;;;;;;7.72;86.52;101326.78;4992793;28;20057;-77
2022/11/08 06:20:06;;;;;;;7.50;4.90;;;;;;;7.64;87.67;101322.53;4990496;28;20053;-78
2022/11/08 06:22:36;;;;;;;10.85;5.05;;;;;;;7.61;86.87;101329.28;4987565;28;20054;-77
2022/11/08 06:25:04;;;;;;;10.07;5.03;;;;;;;7.65;87.26;101335.06;4994613;28;20046;-78
2022/11/08 06:27:32;;;;;;;9.90;5.28;;;;;;;7.70;86.54;101346.06;4985228;28;20049;-77
2022/11/08 06:30:02;;;;;;;9.02;5.05;;;;;;;7.80;87.66;101340.84;4989360;28;20118;-75
2022/11/08 06:32:30;;;;;;;11.63;5.00;;;;;;;7.86;87.19;101349.13;4991292;28;20077;-73
2022/11/08 06:34:57;;;;;;;10.18;5.07;;;;;;;7.86;87.39;101357.28;4995175;28;20042;-77
2022/11/08 06:37:28;;;;;;;10.02;5.15;;;;;;;7.96;86.38;101349.28;4969711;28;20059;-77
2022/11/08 06:39:57;;;;;;;10.98;5.05;;;;;;;8.11;86.05;101354.22;4992850;28;20374;-76
2022/11/08 06:42:25;;;;;;;11.05;5.60;;;;;;;8.43;85.37;101355.59;4993204;28;20058;-75
2022/11/08 06:44:53;;;;;;;10.32;5.85;;;;;;;8.49;83.63;101351.88;4992918;28;20050;-75
2022/11/08 06:47:21;;;;;;;11.23;6.38;;;;;;;8.69;83.09;101358.78;4979973;28;20061;-75
2022/11/08 06:49:49;;;;;;;9.15;5.03;;;;;;;8.79;82.04;101364.41;4991623;28;20047;-76
2022/11/08 06:52:17;;;;;;;20.05;9.10;;;;;;;8.86;82.59;101370.50;4992748;28;20519;-75
2022/11/08 06:54:45;;;;;;;11.82;5.40;;;;;;;8.93;81.64;101366.78;4992767;28;20058;-77
2022/11/08 06:57:13;;;;;;;11.05;5.55;;;;;;;8.90;81.87;101364.56;4993876;28;20390;-75
2022/11/08 06:59:40;;;;;;;12.45;5.20;;;;;;;8.94;80.64;101379.38;4991084;28;20521;-76
2022/11/08 07:02:10;;;;;;;10.35;4.55;;;;;;;8.98;81.45;101378.63;4991432;28;20343;-76
2022/11/08 07:04:39;;;;;;;7.03;4.60;;;;;;;9.00;81.02;101372.94;4987135;28;20055;-77
2022/11/08 07:07:08;;;;;;;11.10;5.20;;;;;;;8.99;81.14;101373.97;4991811;28;20055;-75
2022/11/08 07:09:37;;;;;;;11.50;4.80;;;;;;;8.99;82.07;101383.00;4992011;28;20066;-77
2022/11/08 07:12:08;;;;;;;11.65;5.78;;;;;;;8.96;81.96;101379.94;4991511;28;20057;-76
2022/11/08 07:14:36;;;;;;;5.95;4.18;;;;;;;8.80;82.17;101382.41;4993723;28;20452;-76
2022/11/08 07:17:04;;;;;;;11.32;4.95;;;;;;;8.87;81.56;101383.09;4990968;28;20054;-74
2022/11/08 07:19:32;;;;;;;7.90;5.05;;;;;;;8.86;82.27;101378.69;4992436;28;20580;-75
2022/11/08 07:22:00;;;;;;;8.07;4.82;;;;;;;8.88;82.79;101378.47;4990896;28;20397;-75
2022/11/08 07:24:29;;;;;;;8.23;4.63;;;;;;;8.94;81.39;101380.19;4992673;28;20038;-76
2022/11/08 07:26:57;;;;;;;8.80;4.28;;;;;;;8.87;81.62;101388.56;4985252;28;20050;-76
2022/11/08 07:29:26;;;;;;;8.45;4.50;;;;;;;8.83;81.71;101390.13;4991139;28;20505;-75
2022/11/08 07:31:54;;;;;;;4.93;3.30;;;;;;;8.98;80.60;101391.44;4990036;28;20057;-75
2022/11/08 07:38:54;;;;;;;5.95;3.80;;;;;;;9.57;78.88;101387.38;5310024;23;20058;-75
2022/11/08 07:41:22;;;;;;;5.75;3.75;;;;;;;9.76;78.89;101398.81;4986842;28;20405;-75
2022/11/08 07:43:49;;;;;;;5.38;3.85;;;;;;;10.05;78.44;101397.78;4974430;28;20062;-75
2022/11/08 07:46:18;;;;;;;8.02;3.75;;;;;;;10.15;76.21;101389.69;4971981;28;20043;-74
2022/11/08 07:48:46;;;;;;;6.13;3.42;;;;;;;10.30;75.92;101390.91;4955274;28;20051;-75
2022/11/08 07:51:14;;;;;;;6.78;3.60;;;;;;;10.41;75.60;101392.69;5002213;28;20062;-75
2022/11/08 07:53:42;;;;;;;7.18;3.97;;;;;;;10.53;76.90;101395.31;4972944;28;20050;-74
2022/11/08 07:56:10;;;;;;;5.63;3.67;;;;;;;10.81;75.59;101385.13;4972112;28;20501;-75
2022/11/08 07:58:37;;;;;;;8.02;3.50;;;;;;;11.02;74.21;101390.75;4972634;28;20073;-74
2022/11/08 08:01:08;;;;;;;7.25;3.58;;;;;;;11.12;73.95;101390.00;4974876;28;20046;-73
2022/11/08 08:03:36;;;;;;;7.93;3.75;;;;;;;11.13;74.34;101397.13;4972256;28;20058;-74
2022/11/08 08:06:04;;;;;;;8.32;4.28;;;;;;;11.26;73.91;101395.84;4980217;28;20046;-73
2022/11/08 08:08:32;;;;;;;9.57;4.30;;;;;;;11.35;74.17;101391.50;4982315;28;20051;-74
2022/11/08 08:11:00;;;;;;;7.78;3.83;;;;;;;11.18;74.34;101390.88;4974732;28;20394;-73
2022/11/08 08:13:29;;;;;;;7.93;4.13;;;;;;;11.35;75.13;101393.44;4972482;28;20571;-74
2022/11/08 08:16:00;;;;;;;8.80;4.72;;;;;;;11.41;73.19;101387.72;4985016;28;20053;-72
2022/11/08 08:18:29;;;;;;;7.30;4.32;;;;;;;11.55;72.59;101393.53;4982072;28;20043;-78
2022/11/08 08:20:57;;;;;;;7.45;4.43;;;;;;;11.57;71.80;101393.28;4967208;28;20047;-78
2022/11/08 08:23:26;;;;;;;6.45;4.07;;;;;;;11.60;70.65;101390.00;4956090;28;20047;-78
2022/11/08 08:25:54;;;;;;;7.97;4.47;;;;;;;11.70;71.44;101394.72;4953948;28;20055;-78
2022/11/08 08:28:22;;;;;;;9.05;4.30;;;;;;;11.75;71.19;101405.72;4970892;28;20043;-77
2022/11/08 08:30:49;;;;;;;5.93;3.92;;;;;;;11.78;70.76;101404.34;4967135;28;20406;-76
2022/11/08 08:33:18;;;;;;;8.05;3.75;;;;;;;11.86;69.81;101392.00;4955039;28;20057;-76
2022/11/08 08:35:56;;;;;;;5.03;3.97;;;;;;;12.09;69.03;101394.31;4968008;28;20113;-75
2022/11/08 08:38:24;;;;;;;6.07;3.72;;;;;;;12.19;69.91;101401.78;4939201;28;20391;-75
2022/11/08 08:40:52;;;;;;;5.90;3.78;;;;;;;12.27;68.88;101405.88;4938438;28;20062;-76
2022/11/08 08:43:20;;;;;;;9.77;4.25;;;;;;;12.15;67.69;101395.16;4955119;28;20055;-75
2022/11/08 08:45:48;;;;;;;11.85;3.90;;;;;;;12.15;69.29;101403.41;4951194;28;20051;-76
2022/11/08 08:48:16;;;;;;;7.35;3.95;;;;;;;12.33;70.50;101406.75;4953464;28;20408;-77
2022/11/08 08:50:45;;;;;;;6.82;5.03;;;;;;;12.36;69.07;101409.75;4969971;28;20745;-77
2022/11/08 08:53:13;;;;;;;9.25;4.88;;;;;;;12.30;69.16;101410.00;4967760;28;20055;-76
2022/11/08 08:55:42;;;;;;;5.28;4.68;;;;;;;12.37;69.98;101413.34;4978845;28;20405;-77
2022/11/08 08:58:10;;;;;;;7.35;4.10;;;;;;;12.40;69.40;101411.94;4964302;28;20050;-76
2022/11/08 09:00:38;;;;;;;9.13;4.30;;;;;;;12.38;70.81;101416.91;4950512;29;20047;-77
2022/11/08 09:03:32;;;;;;;9.43;4.60;;;;;;;12.48;69.74;101419.66;4964741;28;20039;-76
2022/11/08 09:06:00;;;;;;;8.55;4.30;;;;;;;12.49;69.68;101410.31;4971942;28;20042;-76
2022/11/08 09:08:29;;;;;;;12.73;5.07;;;;;;;12.48;70.54;101403.19;4972422;28;20497;-75
2022/11/08 09:10:59;;;;;;;10.27;5.57;;;;;;;12.68;69.16;101407.03;4969606;28;20054;-76
2022/11/08 09:13:29;;;;;;;11.50;5.95;;;;;;;12.55;71.20;101403.75;4963978;28;20046;-76
2022/11/08 09:16:00;;;;;;;12.30;6.43;;;;;;;12.52;71.00;101408.97;4941116;28;20489;-77
2022/11/08 09:18:29;;;;;;;12.38;6.90;;;;;;;12.50;70.25;101410.06;4973051;28;20058;-77
2022/11/08 09:20:58;;;;;;;21.85;6.90;;;;;;;12.46;71.40;101411.69;4977468;28;20504;-77
2022/11/08 09:23:26;;;;;;;9.63;6.38;;;;;;;12.45;71.82;101404.56;4972361;28;20058;-77
2022/11/08 09:25:58;;;;;;;14.48;6.50;;;;;;;12.53;72.60;101408.69;4988993;28;20046;-76
2022/11/08 09:28:30;;;;;;;8.85;6.22;;;;;;;12.64;68.91;101406.78;4945581;28;20054;-77
2022/11/08 09:31:04;;;;;;;9.10;5.43;;;;;;;12.82;69.45;101408.16;4975668;28;20054;-76
2022/11/08 09:33:32;;;;;;;11.30;5.28;;;;;;;12.74;69.36;101406.78;4985336;28;20043;-76
2022/11/08 09:36:02;;;;;;;10.05;5.65;;;;;;;12.73;68.89;101413.38;4937908;29;20043;-76
2022/11/08 09:38:30;;;;;;;8.93;4.88;;;;;;;12.85;67.74;101406.78;4957956;28;20414;-75
2022/11/08 09:41:01;;;;;;;8.65;4.28;;;;;;;13.03;68.32;101417.22;4971432;28;20046;-76
2022/11/08 09:43:45;;;;;;;10.85;4.70;;;;;;;13.17;67.33;101414.72;4958124;28;20043;-76
2022/11/08 09:46:41;;;;;;;8.87;4.80;;;;;;;13.34;66.11;101405.34;4957437;28;20050;-76
2022/11/08 09:49:24;;;;;;;10.02;4.85;;;;;;;13.79;64.81;101411.00;4926216;28;20051;-76
2022/11/08 09:51:58;;;;;;;7.38;4.15;;;;;;;14.07;61.16;101419.69;4973599;28;20089;-77
2022/11/08 09:54:38;;;;;;;6.60;4.00;;;;;;;14.14;60.98;101402.03;4979760;28;20046;-77
2022/11/08 09:57:13;;;;;;;11.20;4.70;;;;;;;14.16;57.17;101402.56;4988908;28;20057;-75
2022/11/08 09:59:49;;;;;;;7.10;4.15;;;;;;;14.17;55.05;101407.78;4974845;28;20050;-76
2022/11/08 10:02:22;;;;;;;6.95;3.80;;;;;;;14.15;55.23;101410.00;4974611;28;20050;-75
2022/11/08 10:04:52;;;;;;;;;;;;;;;14.36;58.01;101409.88;4951266;28;20050;-76
2022/11/08 10:08:03;;;;;;;9.35;4.22;;;;;;;14.46;57.99;101414.50;4970693;28;19922;-77
2022/11/08 10:10:34;;;;;;;5.32;3.85;;;;;;;14.33;59.04;101415.97;4970571;28;21767;-76
2022/11/08 10:13:27;;;;;;;5.93;3.60;;;;;;;14.30;56.79;101400.00;4980071;28;20046;-76
2022/11/08 10:16:04;;;;;;;8.77;3.88;;;;;;;14.82;56.30;101405.16;4975146;28;20054;-76
2022/11/08 10:19:06;;;;;;;6.47;3.88;;;;;;;15.35;56.82;101401.63;4991342;28;20059;-76
2022/11/08 10:21:49;;;;;;;5.57;3.60;;;;;;;15.50;54.29;101399.81;4971460;28;20042;-76
2022/11/08 10:24:34;;;;;;;8.13;4.00;;;;;;;15.49;54.47;101395.44;4982209;28;20051;-76
2022/11/08 10:27:09;;;;;;;5.72;3.78;;;;;;;15.77;51.66;101390.94;4955539;29;20406;-76
2022/11/08 10:29:42;;;;;;;9.02;4.72;;;;;;;15.76;50.60;101388.47;4954218;28;20047;-75
2022/11/08 10:32:18;;;;;;;8.77;4.50;;;;;;;15.79;50.79;101385.94;4955086;29;20047;-76
2022/11/08 10:34:57;;;;;;;11.85;4.72;;;;;;;15.76;52.06;101383.78;4954759;29;20367;-75
2022/11/08 10:37:27;;;;;;;8.68;4.22;;;;;;;15.79;52.30;101382.38;4991862;28;20049;-76
2022/11/08 10:40:13;;;;;;;8.73;4.63;;;;;;;15.78;52.00;101380.75;4989396;28;20057;-75
2022/11/08 10:43:13;;;;;;;5.63;4.20;;;;;;;15.77;51.17;101374.38;4992511;28;20053;-75
2022/11/08 10:45:41;;;;;;;6.57;4.32;;;;;;;15.63;51.89;101363.25;4983027;28;20046;-77
2022/11/08 10:48:10;;;;;;;7.85;4.57;;;;;;;15.62;52.29;101363.53;4993828;28;20042;-77
2022/11/08 10:50:47;;;;;;;7.72;4.00;;;;;;;15.77;50.91;101368.03;4989912;28;20042;-76
2022/11/08 10:53:31;;;;;;;9.55;4.60;;;;;;;16.01;51.76;101368.03;4955249;29;20509;-77
2022/11/08 10:56:04;;;;;;;8.88;3.92;;;;;;;16.30;51.07;101355.19;4975417;28;20046;-77
2022/11/08 10:58:42;;;;;;;8.90;3.97;;;;;;;16.56;50.52;101361.13;4991716;28;20057;-77
2022/11/08 11:01:20;;;;;;;6.80;4.30;;;;;;;16.45;49.88;101359.63;4979352;28;20050;-77
2022/11/08 11:03:51;;;;;;;7.55;4.28;;;;;;;16.33;51.04;101349.88;4974510;28;20043;-77
2022/11/08 11:06:29;;;;;;;8.80;3.95;;;;;;;16.26;51.05;101357.72;4991782;28;20510;-77
2022/11/08 11:09:00;;;;;;;6.82;4.30;;;;;;;16.22;51.81;101351.16;4993436;28;20054;-77
2022/11/08 11:11:30;;;;;;;6.50;4.15;;;;;;;16.81;50.25;101347.16;4992880;28;20050;-77
2022/11/08 11:14:17;;;;;;;6.18;4.30;;;;;;;16.86;49.38;101345.13;4993372;28;20065;-77
2022/11/08 11:17:13;;;;;;;8.32;4.05;;;;;;;17.18;48.58;101348.16;4986638;28;20043;-75
2022/11/08 11:19:53;;;;;;;5.65;3.95;;;;;;;16.86;48.35;101341.56;4974998;28;20042;-76
2022/11/08 11:22:32;;;;;;;8.95;4.18;;;;;;;16.76;49.16;101342.53;4973916;28;20042;-76
2022/11/08 11:25:17;;;;;;;8.68;4.00;;;;;;;17.05;49.21;101338.72;4979309;28;20050;-76
2022/11/08 11:27:52;;;;;;;7.43;4.10;;;;;;;17.14;49.01;101333.31;4992841;28;20175;-76
2022/11/08 11:30:34;;;;;;;8.48;4.03;;;;;;;17.02;49.51;101329.09;4956103;28;20050;-75
2022/11/08 11:33:20;;;;;;;8.82;4.20;;;;;;;17.13;48.34;101318.69;5000616;28;20397;-76
2022/11/08 11:36:11;;;;;;;11.68;4.20;;;;;;;17.24;49.11;101324.81;4953611;29;20053;-76
2022/11/08 11:38:49;;;;;;;4.85;3.45;;;;;;;17.54;48.41;101314.25;4954270;29;20055;-76
2022/11/08 11:41:35;;;;;;;7.68;4.13;;;;;;;17.92;47.92;101304.81;4977055;28;20047;-76
2022/11/08 11:44:30;;;;;;;5.53;3.67;;;;;;;18.31;46.53;101310.88;4992212;28;20046;-76
2022/11/08 11:47:11;;;;;;;8.10;3.65;;;;;;;18.70;44.20;101296.56;4973428;28;20054;-76
2022/11/08 11:49:44;;;;;;;6.35;3.47;;;;;;;18.79;43.52;101292.75;4975768;28;20057;-76
2022/11/08 11:52:17;;;;;;;6.00;3.53;;;;;;;18.69;43.14;101286.63;4980114;28;20043;-76
2022/11/08 11:54:48;;;;;;;6.30;3.28;;;;;;;18.76;45.10;101286.97;4989390;28;20069;-76
2022/11/08 11:57:29;;;;;;;7.25;4.05;;;;;;;18.32;44.72;101286.75;4992793;28;20405;-76
2022/11/08 12:00:08;;;;;;;6.88;3.40;;;;;;;17.95;45.37;101282.03;4986928;28;20062;-76
2022/11/08 12:03:14;;;;;;;4.65;3.03;;;;;;;17.81;46.28;101278.50;4953078;29;20051;-77
2022/11/08 12:06:08;;;;;;;4.80;3.35;;;;;;;17.46;47.87;101282.56;4952996;29;20482;-77
2022/11/08 12:08:38;;;;;;;5.80;3.42;;;;;;;17.47;48.19;101277.88;4956716;28;20047;-77
2022/11/08 12:11:44;;;;;;;7.80;3.78;;;;;;;17.45;47.95;101275.41;4983595;28;20053;-77
2022/11/08 12:14:27;;;;;;;4.72;3.13;;;;;;;17.55;48.25;101276.34;4991186;28;20397;-76
2022/11/08 12:16:58;;;;;;;4.00;3.30;;;;;;;17.77;48.31;101275.56;4991795;28;20053;-77
2022/11/08 12:20:08;;;;;;;14.30;4.47;;;;;;;17.75;47.85;101271.47;4987847;28;20053;-76
2022/11/08 12:22:54;;;;;;;5.55;4.00;;;;;;;18.09;49.08;101275.69;4969945;28;20054;-77